sensor_id;sensor_type;location;lat;lon;timestamp;pressure;altitude;pressure_sealevel;temperature;humidity
2268;BME280;11052;43.338;25.502;2024-03-02T00:01:21;100301.03;;;5.64;100.00
2268;BME280;11052;43.338;25.502;2024-03-02T00:03:49;100303.53;;;5.71;100.00
2268;BME280;11052;43.338;25.502;2024-03-02T00:06:19;100303.53;;;5.71;100.00
2268;BME280;11052;43.338;25.502;2024-03-02T00:08:47;100307.03;;;5.64;100.00
2268;BME280;11052;43.338;25.502;2024-03-02T00:11:14;100305.25;;;5.72;100.00
2268;BME280;11052;43.338;25.502;2024-03-02T00:13:42;100300.97;;;5.71;100.00
2268;BME280;11052;43.338;25.502;2024-03-02T00:16:09;100299.31;;;5.66;100.00
2268;BME280;11052;43.338;25.502;2024-03-02T00:18:38;100304.41;;;5.70;100.00
2268;BME280;11052;43.338;25.502;2024-03-02T00:21:06;100287.25;;;5.72;100.00
2268;BME280;11052;43.338;25.502;2024-03-02T00:23:36;100287.22;;;5.74;100.00
2268;BME280;11052;43.338;25.502;2024-03-02T00:26:04;100288.94;;;5.73;100.00
2268;BME280;11052;43.338;25.502;2024-03-02T00:28:35;100281.19;;;5.78;100.00
2268;BME280;11052;43.338;25.502;2024-03-02T00:31:03;100272.50;;;5.86;100.00
2268;BME280;11052;43.338;25.502;2024-03-02T00:33:32;100271.66;;;5.89;100.00
2268;BME280;11052;43.338;25.502;2024-03-02T00:36:01;100273.38;;;5.87;100.00
2268;BME280;11052;43.338;25.502;2024-03-02T00:38:30;100268.25;;;5.84;100.00
2268;BME280;11052;43.338;25.502;2024-03-02T00:40:59;100269.97;;;5.83;100.00
2268;BME280;11052;43.338;25.502;2024-03-02T00:43:45;100260.53;;;5.85;100.00
2268;BME280;11052;43.338;25.502;2024-03-02T00:46:16;100264.81;;;5.85;100.00
2268;BME280;11052;43.338;25.502;2024-03-02T00:48:53;100266.44;;;5.95;100.00
2268;BME280;11052;43.338;25.502;2024-03-02T00:51:23;100273.28;;;5.98;100.00
2268;BME280;11052;43.338;25.502;2024-03-02T00:53:51;100267.31;;;5.96;100.00
2268;BME280;11052;43.338;25.502;2024-03-02T00:56:21;100271.59;;;5.95;100.00
2268;BME280;11052;43.338;25.502;2024-03-02T00:58:49;100262.13;;;5.99;100.00
2268;BME280;11052;43.338;25.502;2024-03-02T01:01:17;100256.09;;;6.00;100.00
2268;BME280;11052;43.338;25.502;2024-03-02T01:03:45;100259.44;;;6.06;100.00
2268;BME280;11052;43.338;25.502;2024-03-02T01:06:12;100266.41;;;6.00;100.00
2268;BME280;11052;43.338;25.502;2024-03-02T01:08:41;100257.88;;;5.95;100.00
2268;BME280;11052;43.338;25.502;2024-03-02T01:11:08;100252.72;;;5.96;100.00
2268;BME280;11052;43.338;25.502;2024-03-02T01:13:36;100250.97;;;5.98;100.00
2268;BME280;11052;43.338;25.502;2024-03-02T01:16:03;100250.97;;;6.00;100.00
2268;BME280;11052;43.338;25.502;2024-03-02T01:18:30;100249.31;;;5.93;100.00
2268;BME280;11052;43.338;25.502;2024-03-02T01:20:58;100251.81;;;6.00;100.00
2268;BME280;11052;43.338;25.502;2024-03-02T01:23:25;100232.03;;;6.05;100.00
2268;BME280;11052;43.338;25.502;2024-03-02T01:25:54;100237.06;;;6.11;100.00
2268;BME280;11052;43.338;25.502;2024-03-02T01:28:21;100237.91;;;6.12;100.00
2268;BME280;11052;43.338;25.502;2024-03-02T01:30:48;100232.78;;;6.10;100.00
2268;BME280;11052;43.338;25.502;2024-03-02T01:33:16;100227.78;;;6.01;100.00
2268;BME280;11052;43.338;25.502;2024-03-02T01:35:43;100221.81;;;5.99;100.00
2268;BME280;11052;43.338;25.502;2024-03-02T01:38:10;100218.34;;;6.00;100.00
2268;BME280;11052;43.338;25.502;2024-03-02T01:40:38;100216.59;;;6.05;100.00
2268;BME280;11052;43.338;25.502;2024-03-02T01:43:07;100223.47;;;6.03;100.00
2268;BME280;11052;43.338;25.502;2024-03-02T01:45:35;100217.47;;;6.03;100.00
2268;BME280;11052;43.338;25.502;2024-03-02T01:48:03;100220.06;;;6.01;100.00
2268;BME280;11052;43.338;25.502;2024-03-02T01:50:32;100213.94;;;6.07;100.00
2268;BME280;11052;43.338;25.502;2024-03-02T01:53:00;100208.78;;;6.10;100.00
2268;BME280;11052;43.338;25.502;2024-03-02T01:55:28;100206.19;;;6.11;100.00
2268;BME280;11052;43.338;25.502;2024-03-02T01:57:56;100207.91;;;6.11;100.00
2268;BME280;11052;43.338;25.502;2024-03-02T02:00:24;100207.00;;;6.15;100.00
2268;BME280;11052;43.338;25.502;2024-03-02T02:02:52;100212.16;;;6.13;100.00
2268;BME280;11052;43.338;25.502;2024-03-02T02:05:19;100219.00;;;6.14;100.00
2268;BME280;11052;43.338;25.502;2024-03-02T02:07:46;100215.56;;;6.15;100.00
2268;BME280;11052;43.338;25.502;2024-03-02T02:10:13;100213.03;;;6.12;100.00
2268;BME280;11052;43.338;25.502;2024-03-02T02:12:40;100211.22;;;6.19;100.00
2268;BME280;11052;43.338;25.502;2024-03-02T02:15:25;100221.53;;;6.17;100.00
2268;BME280;11052;43.338;25.502;2024-03-02T02:17:53;100224.09;;;6.17;100.00
2268;BME280;11052;43.338;25.502;2024-03-02T02:20:20;100228.38;;;6.20;100.00
2268;BME280;11052;43.338;25.502;2024-03-02T02:22:58;100225.81;;;6.18;100.00
2268;BME280;11052;43.338;25.502;2024-03-02T02:25:25;100222.31;;;6.22;100.00
2268;BME280;11052;43.338;25.502;2024-03-02T02:27:53;100221.44;;;6.23;100.00
2268;BME280;11052;43.338;25.502;2024-03-02T02:30:22;100224.09;;;6.19;100.00
2268;BME280;11052;43.338;25.502;2024-03-02T02:32:49;100236.91;;;6.23;100.00
2268;BME280;11052;43.338;25.502;2024-03-02T02:35:15;100233.63;;;6.12;100.00
2268;BME280;11052;43.338;25.502;2024-03-02T02:37:43;100240.53;;;6.09;100.00
2268;BME280;11052;43.338;25.502;2024-03-02T02:40:12;100243.94;;;6.11;100.00
2268;BME280;11052;43.338;25.502;2024-03-02T02:42:39;100243.03;;;6.13;100.00
2268;BME280;11052;43.338;25.502;2024-03-02T02:45:07;100238.75;;;6.12;100.00
2268;BME280;11052;43.338;25.502;2024-03-02T02:47:34;100237.00;;;6.14;100.00
2268;BME280;11052;43.338;25.502;2024-03-02T02:50:02;100233.59;;;6.14;100.00
2268;BME280;11052;43.338;25.502;2024-03-02T02:52:33;100228.34;;;6.21;100.00
2268;BME280;11052;43.338;25.502;2024-03-02T02:55:03;100216.31;;;6.23;100.00
2268;BME280;11052;43.338;25.502;2024-03-02T02:57:32;100217.97;;;6.26;100.00
2268;BME280;11052;43.338;25.502;2024-03-02T03:00:02;100236.22;;;6.09;100.00
2268;BME280;11052;43.338;25.502;2024-03-02T03:02:38;100235.41;;;6.07;100.00
2268;BME280;11052;43.338;25.502;2024-03-02T03:05:08;100227.66;;;6.07;100.00
2268;BME280;11052;43.338;25.502;2024-03-02T03:07:35;100215.56;;;6.14;100.00
2268;BME280;11052;43.338;25.502;2024-03-02T03:10:03;100221.56;;;6.16;100.00
2268;BME280;11052;43.338;25.502;2024-03-02T03:12:33;100225.81;;;6.18;100.00
2268;BME280;11052;43.338;25.502;2024-03-02T03:15:01;100241.28;;;6.17;100.00
2268;BME280;11052;43.338;25.502;2024-03-02T03:17:28;100233.56;;;6.15;100.00
2268;BME280;11052;43.338;25.502;2024-03-02T03:19:55;100221.50;;;6.20;100.00
2268;BME280;11052;43.338;25.502;2024-03-02T03:22:22;100223.28;;;6.15;100.00
2268;BME280;11052;43.338;25.502;2024-03-02T03:24:49;100224.16;;;6.14;100.00
2268;BME280;11052;43.338;25.502;2024-03-02T03:27:17;100220.00;;;6.06;100.00
2268;BME280;11052;43.338;25.502;2024-03-02T03:29:46;100216.53;;;6.07;100.00
2268;BME280;11052;43.338;25.502;2024-03-02T03:32:14;100225.00;;;6.15;100.00
2268;BME280;11052;43.338;25.502;2024-03-02T03:34:42;100227.50;;;6.19;100.00
2268;BME280;11052;43.338;25.502;2024-03-02T03:37:10;100224.09;;;6.19;100.00
2268;BME280;11052;43.338;25.502;2024-03-02T03:39:37;100230.00;;;6.25;100.00
2268;BME280;11052;43.338;25.502;2024-03-02T03:42:04;100231.72;;;6.25;100.00
2268;BME280;11052;43.338;25.502;2024-03-02T03:44:32;100234.28;;;6.27;100.00
2268;BME280;11052;43.338;25.502;2024-03-02T03:47:01;100236.09;;;6.20;100.00
2268;BME280;11052;43.338;25.502;2024-03-02T03:49:31;100234.63;;;6.04;100.00
2268;BME280;11052;43.338;25.502;2024-03-02T03:51:58;100238.03;;;6.06;100.00
2268;BME280;11052;43.338;25.502;2024-03-02T03:54:26;100239.75;;;6.05;100.00
2268;BME280;11052;43.338;25.502;2024-03-02T03:56:53;100245.00;;;5.96;100.00
2268;BME280;11052;43.338;25.502;2024-03-02T03:59:20;100239.00;;;5.96;100.00
2268;BME280;11052;43.338;25.502;2024-03-02T04:01:47;100219.34;;;5.88;100.00
2268;BME280;11052;43.338;25.502;2024-03-02T04:04:16;100234.75;;;5.93;100.00
2268;BME280;11052;43.338;25.502;2024-03-02T04:06:43;100223.53;;;5.97;100.00
2268;BME280;11052;43.338;25.502;2024-03-02T04:09:10;100219.16;;;6.05;100.00
2268;BME280;11052;43.338;25.502;2024-03-02T04:11:37;100215.75;;;6.03;100.00
2268;BME280;11052;43.338;25.502;2024-03-02T04:14:04;100229.38;;;6.08;100.00
2268;BME280;11052;43.338;25.502;2024-03-02T04:16:32;100217.34;;;6.10;100.00
2268;BME280;11052;43.338;25.502;2024-03-02T04:19:00;100212.22;;;6.07;100.00
2268;BME280;11052;43.338;25.502;2024-03-02T04:21:29;100221.81;;;5.99;100.00
2268;BME280;11052;43.338;25.502;2024-03-02T04:23:56;100201.84;;;6.15;100.00
2268;BME280;11052;43.338;25.502;2024-03-02T04:26:24;100237.91;;;6.12;100.00
2268;BME280;11052;43.338;25.502;2024-03-02T04:28:52;100222.38;;;6.19;100.00
2268;BME280;11052;43.338;25.502;2024-03-02T04:31:19;100241.28;;;6.17;100.00
2268;BME280;11052;43.338;25.502;2024-03-02T04:33:47;100234.47;;;6.11;100.00
2268;BME280;11052;43.338;25.502;2024-03-02T04:36:14;100240.50;;;6.10;100.00
2268;BME280;11052;43.338;25.502;2024-03-02T04:38:42;100248.22;;;6.10;100.00
2268;BME280;11052;43.338;25.502;2024-03-02T04:41:09;100242.25;;;6.08;100.00
2268;BME280;11052;43.338;25.502;2024-03-02T04:43:37;100231.19;;;6.03;100.00
2268;BME280;11052;43.338;25.502;2024-03-02T04:46:05;100242.34;;;6.02;100.00
2268;BME280;11052;43.338;25.502;2024-03-02T04:48:32;100237.06;;;6.11;100.00
2268;BME280;11052;43.338;25.502;2024-03-02T04:50:59;100244.72;;;6.16;100.00
2268;BME280;11052;43.338;25.502;2024-03-02T04:53:27;100247.28;;;6.17;100.00
2268;BME280;11052;43.338;25.502;2024-03-02T04:55:55;100246.41;;;6.17;100.00
2268;BME280;11052;43.338;25.502;2024-03-02T04:58:53;100259.34;;;6.12;100.00
2268;BME280;11052;43.338;25.502;2024-03-02T05:01:20;100246.50;;;6.11;100.00
2268;BME280;11052;43.338;25.502;2024-03-02T05:03:47;100221.53;;;6.17;100.00
2268;BME280;11052;43.338;25.502;2024-03-02T05:06:14;100248.09;;;6.19;100.00
2268;BME280;11052;43.338;25.502;2024-03-02T05:08:41;100255.06;;;6.11;100.00
2268;BME280;11052;43.338;25.502;2024-03-02T05:11:11;100252.47;;;6.14;100.00
2268;BME280;11052;43.338;25.502;2024-03-02T05:13:56;100263.63;;;6.12;100.00
2268;BME280;11052;43.338;25.502;2024-03-02T05:16:23;100255.06;;;6.13;100.00
2268;BME280;11052;43.338;25.502;2024-03-02T05:18:50;100251.53;;;6.20;100.00
2268;BME280;11052;43.338;25.502;2024-03-02T05:21:17;100253.38;;;6.09;100.00
2268;BME280;11052;43.338;25.502;2024-03-02T05:23:44;100255.19;;;6.05;100.00
2268;BME280;11052;43.338;25.502;2024-03-02T05:26:13;100279.91;;;6.14;100.00
2268;BME280;11052;43.338;25.502;2024-03-02T05:28:40;100242.13;;;6.16;100.00
2268;BME280;11052;43.338;25.502;2024-03-02T05:31:10;100249.72;;;6.27;100.00
2268;BME280;11052;43.338;25.502;2024-03-02T05:33:37;100266.09;;;6.22;100.00
2268;BME280;11052;43.338;25.502;2024-03-02T05:36:05;100271.22;;;6.22;100.00
2268;BME280;11052;43.338;25.502;2024-03-02T05:38:32;100272.03;;;6.28;100.00
2268;BME280;11052;43.338;25.502;2024-03-02T05:40:59;100295.28;;;6.18;100.00
2268;BME280;11052;43.338;25.502;2024-03-02T05:43:27;100289.22;;;6.25;100.00
2268;BME280;11052;43.338;25.502;2024-03-02T05:45:54;100296.78;;;6.38;100.00
2268;BME280;11052;43.338;25.502;2024-03-02T05:48:21;100289.06;;;6.38;100.00
2268;BME280;11052;43.338;25.502;2024-03-02T05:50:48;100284.59;;;6.49;100.00
2268;BME280;11052;43.338;25.502;2024-03-02T05:53:15;100278.56;;;6.51;100.00
2268;BME280;11052;43.338;25.502;2024-03-02T05:55:43;100295.72;;;6.52;100.00
2268;BME280;11052;43.338;25.502;2024-03-02T05:58:10;100306.84;;;6.56;100.00
2268;BME280;11052;43.338;25.502;2024-03-02T06:00:52;100279.38;;;6.55;100.00
2268;BME280;11052;43.338;25.502;2024-03-02T06:03:20;100275.88;;;6.61;100.00
2268;BME280;11052;43.338;25.502;2024-03-02T06:05:47;100267.13;;;6.71;100.00
2268;BME280;11052;43.338;25.502;2024-03-02T06:08:14;100279.13;;;6.72;100.00
2268;BME280;11052;43.338;25.502;2024-03-02T06:10:41;100274.81;;;6.74;100.00
2268;BME280;11052;43.338;25.502;2024-03-02T06:13:08;100286.75;;;6.79;100.00
2268;BME280;11052;43.338;25.502;2024-03-02T06:15:36;100284.41;;;6.64;100.00
2268;BME280;11052;43.338;25.502;2024-03-02T06:18:04;100282.66;;;6.66;100.00
2268;BME280;11052;43.338;25.502;2024-03-02T06:20:33;100291.22;;;6.67;100.00
2268;BME280;11052;43.338;25.502;2024-03-02T06:23:00;100291.13;;;6.74;100.00
2268;BME280;11052;43.338;25.502;2024-03-02T06:25:27;100280.63;;;6.86;100.00
2268;BME280;11052;43.338;25.502;2024-03-02T06:27:54;100286.50;;;6.95;100.00
2268;BME280;11052;43.338;25.502;2024-03-02T06:30:22;100283.03;;;6.97;100.00
2268;BME280;11052;43.338;25.502;2024-03-02T06:32:51;100280.38;;;7.02;100.00
2268;BME280;11052;43.338;25.502;2024-03-02T06:35:20;100288.03;;;7.06;100.00
2268;BME280;11052;43.338;25.502;2024-03-02T06:37:47;100278.47;;;7.13;100.00
2268;BME280;11052;43.338;25.502;2024-03-02T06:40:15;100284.44;;;7.16;100.00
2268;BME280;11052;43.338;25.502;2024-03-02T06:42:42;100302.53;;;7.13;100.00
2268;BME280;11052;43.338;25.502;2024-03-02T06:45:10;100292.13;;;7.18;100.00
2268;BME280;11052;43.338;25.502;2024-03-02T06:47:37;100299.84;;;7.19;100.00
2268;BME280;11052;43.338;25.502;2024-03-02T06:50:04;100309.09;;;7.31;100.00
2268;BME280;11052;43.338;25.502;2024-03-02T06:52:34;100300.38;;;7.40;100.00
2268;BME280;11052;43.338;25.502;2024-03-02T06:55:01;100306.41;;;7.39;100.00
2268;BME280;11052;43.338;25.502;2024-03-02T06:57:29;100288.34;;;7.39;100.00
2268;BME280;11052;43.338;25.502;2024-03-02T06:59:56;100302.91;;;7.41;100.00
2268;BME280;11052;43.338;25.502;2024-03-02T07:02:24;100295.91;;;7.49;100.00
2268;BME280;11052;43.338;25.502;2024-03-02T07:04:52;100300.06;;;7.56;100.00
2268;BME280;11052;43.338;25.502;2024-03-02T07:07:19;100299.16;;;7.61;100.00
2268;BME280;11052;43.338;25.502;2024-03-02T07:09:48;100294.72;;;7.67;100.00
2268;BME280;11052;43.338;25.502;2024-03-02T07:12:15;100275.59;;;7.79;100.00
2268;BME280;11052;43.338;25.502;2024-03-02T07:14:43;100261.53;;;7.92;100.00
2268;BME280;11052;43.338;25.502;2024-03-02T07:17:37;100255.19;;;7.67;100.00
2268;BME280;11052;43.338;25.502;2024-03-02T07:20:05;100272.06;;;7.81;100.00
2268;BME280;11052;43.338;25.502;2024-03-02T07:22:33;100289.00;;;7.96;100.00
2268;BME280;11052;43.338;25.502;2024-03-02T07:25:02;100324.00;;;8.09;100.00
2268;BME280;11052;43.338;25.502;2024-03-02T07:27:31;100322.91;;;8.21;100.00
2268;BME280;11052;43.338;25.502;2024-03-02T07:29:59;100311.16;;;8.06;100.00
2268;BME280;11052;43.338;25.502;2024-03-02T07:32:26;100291.25;;;8.13;100.00
2268;BME280;11052;43.338;25.502;2024-03-02T07:34:53;100298.81;;;8.20;100.00
2268;BME280;11052;43.338;25.502;2024-03-02T07:37:21;100301.38;;;8.22;100.00
2268;BME280;11052;43.338;25.502;2024-03-02T07:39:48;100290.25;;;8.18;100.00
2268;BME280;11052;43.338;25.502;2024-03-02T07:42:17;100306.41;;;8.28;100.00
2268;BME280;11052;43.338;25.502;2024-03-02T07:44:44;100313.97;;;8.39;100.00
2268;BME280;11052;43.338;25.502;2024-03-02T07:47:11;100300.00;;;8.49;100.00
2268;BME280;11052;43.338;25.502;2024-03-02T07:49:38;100297.19;;;8.60;100.00
2268;BME280;11052;43.338;25.502;2024-03-02T07:52:05;100306.53;;;8.65;100.00
2268;BME280;11052;43.338;25.502;2024-03-02T07:54:33;100306.22;;;8.77;100.00
2268;BME280;11052;43.338;25.502;2024-03-02T07:57:00;100290.31;;;8.59;100.00
2268;BME280;11052;43.338;25.502;2024-03-02T07:59:28;100298.13;;;8.56;100.00
2268;BME280;11052;43.338;25.502;2024-03-02T08:01:56;100302.03;;;8.72;100.00
2268;BME280;11052;43.338;25.502;2024-03-02T08:04:23;100293.97;;;8.85;100.00
2268;BME280;11052;43.338;25.502;2024-03-02T08:06:50;100310.06;;;8.98;100.00
2268;BME280;11052;43.338;25.502;2024-03-02T08:09:17;100314.97;;;9.09;100.00
2268;BME280;11052;43.338;25.502;2024-03-02T08:11:45;100303.53;;;9.19;100.00
2268;BME280;11052;43.338;25.502;2024-03-02T08:14:12;100314.59;;;9.24;100.00
2268;BME280;11052;43.338;25.502;2024-03-02T08:16:40;100304.84;;;9.35;100.00
2268;BME280;11052;43.338;25.502;2024-03-02T08:19:07;100299.56;;;9.40;100.00
2268;BME280;11052;43.338;25.502;2024-03-02T08:21:35;100295.03;;;9.48;100.00
2268;BME280;11052;43.338;25.502;2024-03-02T08:24:03;100288.66;;;9.60;100.00
2268;BME280;11052;43.338;25.502;2024-03-02T08:26:30;100286.94;;;9.60;100.00
2268;BME280;11052;43.338;25.502;2024-03-02T08:28:57;100306.47;;;9.72;100.00
2268;BME280;11052;43.338;25.502;2024-03-02T08:31:24;100319.94;;;9.84;100.00
2268;BME280;11052;43.338;25.502;2024-03-02T08:33:53;100313.09;;;9.82;100.00
2268;BME280;11052;43.338;25.502;2024-03-02T08:36:20;100299.25;;;9.83;100.00
2268;BME280;11052;43.338;25.502;2024-03-02T08:38:48;100304.53;;;9.80;100.00
2268;BME280;11052;43.338;25.502;2024-03-02T08:41:16;100324.81;;;9.95;100.00
2268;BME280;11052;43.338;25.502;2024-03-02T08:43:44;100304.84;;;10.00;100.00
2268;BME280;11052;43.338;25.502;2024-03-02T08:46:11;100298.56;;;10.09;100.00
2268;BME280;11052;43.338;25.502;2024-03-02T08:48:39;100306.97;;;10.17;100.00
2268;BME280;11052;43.338;25.502;2024-03-02T08:51:07;100291.53;;;10.12;100.00
2268;BME280;11052;43.338;25.502;2024-03-02T08:53:35;100308.66;;;10.18;100.00
2268;BME280;11052;43.338;25.502;2024-03-02T08:56:03;100319.06;;;10.16;100.00
2268;BME280;11052;43.338;25.502;2024-03-02T08:58:31;100303.47;;;10.20;100.00
2268;BME280;11052;43.338;25.502;2024-03-02T09:00:58;100293.91;;;10.22;100.00
2268;BME280;11052;43.338;25.502;2024-03-02T09:03:26;100305.94;;;10.24;100.00
2268;BME280;11052;43.338;25.502;2024-03-02T09:05:53;100302.97;;;10.36;100.00
2268;BME280;11052;43.338;25.502;2024-03-02T09:08:22;100315.56;;;10.48;100.00
2268;BME280;11052;43.338;25.502;2024-03-02T09:10:49;100312.81;;;10.53;100.00
2268;BME280;11052;43.338;25.502;2024-03-02T09:13:16;100318.41;;;10.69;100.00
2268;BME280;11052;43.338;25.502;2024-03-02T09:15:43;100325.06;;;10.48;100.00
2268;BME280;11052;43.338;25.502;2024-03-02T09:18:10;100323.91;;;10.58;100.00
2268;BME280;11052;43.338;25.502;2024-03-02T09:20:37;100316.88;;;10.62;100.00
2268;BME280;11052;43.338;25.502;2024-03-02T09:23:04;100314.28;;;10.62;100.00
2268;BME280;11052;43.338;25.502;2024-03-02T09:25:33;100318.25;;;10.73;100.00
2268;BME280;11052;43.338;25.502;2024-03-02T09:28:00;100311.28;;;10.75;100.00
2268;BME280;11052;43.338;25.502;2024-03-02T09:30:28;100310.66;;;10.67;100.00
2268;BME280;11052;43.338;25.502;2024-03-02T09:32:55;100303.66;;;10.71;100.00
2268;BME280;11052;43.338;25.502;2024-03-02T09:35:22;100308.59;;;10.78;100.00
2268;BME280;11052;43.338;25.502;2024-03-02T09:37:49;100321.09;;;10.94;100.00
2268;BME280;11052;43.338;25.502;2024-03-02T09:40:17;100317.50;;;10.98;100.00
2268;BME280;11052;43.338;25.502;2024-03-02T09:42:45;100323.06;;;11.13;100.00
2268;BME280;11052;43.338;25.502;2024-03-02T09:45:19;100323.72;;;11.20;100.00
2268;BME280;11052;43.338;25.502;2024-03-02T09:47:49;100324.13;;;11.08;100.00
2268;BME280;11052;43.338;25.502;2024-03-02T09:50:16;100335.09;;;11.16;100.00
2268;BME280;11052;43.338;25.502;2024-03-02T09:52:44;100352.56;;;11.11;100.00
2268;BME280;11052;43.338;25.502;2024-03-02T09:55:15;100341.00;;;11.21;100.00
2268;BME280;11052;43.338;25.502;2024-03-02T09:57:42;100332.44;;;11.18;100.00
2268;BME280;11052;43.338;25.502;2024-03-02T10:00:12;100328.72;;;11.26;100.00
2268;BME280;11052;43.338;25.502;2024-03-02T10:02:40;100319.00;;;11.31;100.00
2268;BME280;11052;43.338;25.502;2024-03-02T10:05:08;100316.75;;;11.47;100.00
2268;BME280;11052;43.338;25.502;2024-03-02T10:07:35;100317.44;;;11.52;100.00
2268;BME280;11052;43.338;25.502;2024-03-02T10:10:13;100294.03;;;11.54;100.00
2268;BME280;11052;43.338;25.502;2024-03-02T10:12:40;100291.13;;;11.63;100.00
2268;BME280;11052;43.338;25.502;2024-03-02T10:15:08;100298.00;;;11.64;100.00
2268;BME280;11052;43.338;25.502;2024-03-02T10:17:36;100287.31;;;11.73;100.00
2268;BME280;11052;43.338;25.502;2024-03-02T10:20:22;100277.81;;;11.72;100.00
2268;BME280;11052;43.338;25.502;2024-03-02T10:22:50;100281.69;;;11.60;100.00
2268;BME280;11052;43.338;25.502;2024-03-02T10:25:29;100284.81;;;11.70;100.00
2268;BME280;11052;43.338;25.502;2024-03-02T10:27:57;100291.53;;;11.77;100.00
2268;BME280;11052;43.338;25.502;2024-03-02T10:30:25;100275.41;;;11.92;100.00
2268;BME280;11052;43.338;25.502;2024-03-02T10:32:54;100265.53;;;12.02;100.00
2268;BME280;11052;43.338;25.502;2024-03-02T10:35:22;100260.66;;;11.93;100.00
2268;BME280;11052;43.338;25.502;2024-03-02T10:37:52;100264.44;;;11.84;100.00
2268;BME280;11052;43.338;25.502;2024-03-02T10:40:21;100248.75;;;11.87;100.00
2268;BME280;11052;43.338;25.502;2024-03-02T10:42:50;100224.00;;;12.00;100.00
2268;BME280;11052;43.338;25.502;2024-03-02T10:45:19;100231.81;;;12.00;100.00
2268;BME280;11052;43.338;25.502;2024-03-02T10:47:48;100249.81;;;12.05;100.00
2268;BME280;11052;43.338;25.502;2024-03-02T10:50:17;100261.84;;;12.07;100.00
2268;BME280;11052;43.338;25.502;2024-03-02T10:52:44;100266.28;;;12.27;100.00
2268;BME280;11052;43.338;25.502;2024-03-02T10:55:12;100274.81;;;12.31;100.00
2268;BME280;11052;43.338;25.502;2024-03-02T10:57:42;100271.63;;;12.46;100.00
2268;BME280;11052;43.338;25.502;2024-03-02T11:00:13;100284.34;;;12.54;100.00
2268;BME280;11052;43.338;25.502;2024-03-02T11:02:49;100285.81;;;12.61;100.00
2268;BME280;11052;43.338;25.502;2024-03-02T11:05:28;100289.00;;;12.67;100.00
2268;BME280;11052;43.338;25.502;2024-03-02T11:08:01;100284.22;;;12.57;100.00
2268;BME280;11052;43.338;25.502;2024-03-02T11:10:34;100266.09;;;12.32;100.00
2268;BME280;11052;43.338;25.502;2024-03-02T11:13:05;100246.09;;;12.34;100.00
2268;BME280;11052;43.338;25.502;2024-03-02T11:15:36;100260.28;;;12.48;100.00
2268;BME280;11052;43.338;25.502;2024-03-02T11:18:04;100269.53;;;12.56;100.00
2268;BME280;11052;43.338;25.502;2024-03-02T11:20:36;100266.56;;;12.65;100.00
2268;BME280;11052;43.338;25.502;2024-03-02T11:23:05;100262.47;;;12.59;100.00
2268;BME280;11052;43.338;25.502;2024-03-02T11:25:34;100259.25;;;12.53;100.00
2268;BME280;11052;43.338;25.502;2024-03-02T11:28:03;100257.94;;;12.64;100.00
2268;BME280;11052;43.338;25.502;2024-03-02T11:30:51;100260.41;;;12.67;100.00
2268;BME280;11052;43.338;25.502;2024-03-02T11:33:25;100246.44;;;12.70;100.00
2268;BME280;11052;43.338;25.502;2024-03-02T11:35:56;100237.66;;;12.72;100.00
2268;BME280;11052;43.338;25.502;2024-03-02T11:38:28;100238.03;;;12.85;100.00
2268;BME280;11052;43.338;25.502;2024-03-02T11:40:56;100247.94;;;12.97;100.00
2268;BME280;11052;43.338;25.502;2024-03-02T11:43:23;100254.41;;;12.87;100.00
2268;BME280;11052;43.338;25.502;2024-03-02T11:45:57;100257.56;;;12.95;100.00
2268;BME280;11052;43.338;25.502;2024-03-02T11:48:25;100267.25;;;12.92;100.00
2268;BME280;11052;43.338;25.502;2024-03-02T11:50:52;100264.09;;;12.84;100.00
2268;BME280;11052;43.338;25.502;2024-03-02T11:53:22;100269.53;;;12.77;100.00
2268;BME280;11052;43.338;25.502;2024-03-02T11:55:49;100269.19;;;12.87;100.00
2268;BME280;11052;43.338;25.502;2024-03-02T11:58:17;100252.91;;;12.82;100.00
2268;BME280;11052;43.338;25.502;2024-03-02T12:00:46;100246.31;;;12.95;100.00
2268;BME280;11052;43.338;25.502;2024-03-02T12:03:13;100241.03;;;12.96;100.00
2268;BME280;11052;43.338;25.502;2024-03-02T12:05:42;100243.28;;;12.84;100.00
2268;BME280;11052;43.338;25.502;2024-03-02T12:08:11;100242.19;;;12.89;100.00
2268;BME280;11052;43.338;25.502;2024-03-02T12:10:40;100236.31;;;12.84;100.00
2268;BME280;11052;43.338;25.502;2024-03-02T12:13:10;100237.13;;;12.86;100.00
2268;BME280;11052;43.338;25.502;2024-03-02T12:15:38;100234.69;;;12.82;100.00
2268;BME280;11052;43.338;25.502;2024-03-02T12:18:06;100249.16;;;12.67;100.00
2268;BME280;11052;43.338;25.502;2024-03-02T12:20:33;100249.75;;;12.73;100.00
2268;BME280;11052;43.338;25.502;2024-03-02T12:23:02;100248.63;;;12.80;100.00
2268;BME280;11052;43.338;25.502;2024-03-02T12:25:30;100241.41;;;12.87;100.00
2268;BME280;11052;43.338;25.502;2024-03-02T12:28:00;100258.41;;;12.96;100.00
2268;BME280;11052;43.338;25.502;2024-03-02T12:30:30;100251.94;;;13.04;100.00
2268;BME280;11052;43.338;25.502;2024-03-02T12:32:57;100249.22;;;12.87;100.00
2268;BME280;11052;43.338;25.502;2024-03-02T12:35:25;100240.81;;;13.01;100.00
2268;BME280;11052;43.338;25.502;2024-03-02T12:37:53;100249.81;;;13.14;100.00
2268;BME280;11052;43.338;25.502;2024-03-02T12:40:21;100254.97;;;13.16;100.00
2268;BME280;11052;43.338;25.502;2024-03-02T12:42:49;100253.03;;;13.21;100.00
2268;BME280;11052;43.338;25.502;2024-03-02T12:45:18;100246.88;;;13.23;100.00
2268;BME280;11052;43.338;25.502;2024-03-02T12:47:49;100259.16;;;13.20;100.00
2268;BME280;11052;43.338;25.502;2024-03-02T12:50:17;100251.94;;;13.26;100.00
2268;BME280;11052;43.338;25.502;2024-03-02T12:52:51;100246.88;;;13.23;100.00
2268;BME280;11052;43.338;25.502;2024-03-02T12:55:20;100246.94;;;13.22;100.00